createdAt,value
2018-12-22T00:01:24.507Z,10.93
2018-12-22T00:03:52.818Z,11.02
2018-12-22T00:06:21.157Z,11.01
2018-12-22T00:08:49.575Z,11.00
2018-12-22T00:11:17.995Z,10.95
2018-12-22T00:13:46.336Z,10.86
2018-12-22T00:16:14.825Z,10.98
2018-12-22T00:18:43.152Z,10.98
2018-12-22T00:21:11.782Z,10.92
2018-12-22T00:23:40.094Z,11.00
2018-12-22T00:26:08.449Z,11.00
2018-12-22T00:28:36.759Z,11.14
2018-12-22T00:31:05.096Z,11.19
2018-12-22T00:33:33.425Z,11.22
2018-12-22T00:36:01.819Z,11.20
2018-12-22T00:38:30.129Z,11.29
2018-12-22T00:41:00.317Z,11.32
2018-12-22T00:43:28.622Z,11.40
2018-12-22T00:45:57.392Z,11.33
2018-12-22T00:48:25.737Z,11.41
2018-12-22T00:50:54.145Z,11.32
2018-12-22T00:53:22.557Z,11.27
2018-12-22T00:55:50.915Z,11.28
2018-12-22T00:58:19.247Z,11.19
2018-12-22T01:00:47.582Z,11.15
2018-12-22T01:03:16.284Z,11.15
2018-12-22T01:05:44.627Z,11.16
2018-12-22T01:08:13.419Z,11.11
2018-12-22T01:10:41.777Z,11.13
2018-12-22T01:13:10.103Z,11.07
2018-12-22T01:15:38.430Z,11.03
2018-12-22T01:18:06.777Z,11.01
2018-12-22T01:20:35.084Z,11.03
2018-12-22T01:23:03.431Z,10.94
2018-12-22T01:25:32.434Z,10.83
2018-12-22T01:28:00.766Z,10.79
2018-12-22T01:30:29.090Z,10.79
2018-12-22T01:32:57.421Z,10.90
2018-12-22T01:35:25.755Z,10.80
2018-12-22T01:37:54.110Z,10.81
2018-12-22T01:40:22.436Z,10.86
2018-12-22T01:42:50.798Z,10.86
2018-12-22T01:45:19.110Z,10.75
2018-12-22T01:47:47.453Z,10.71
2018-12-22T01:50:16.629Z,10.76
2018-12-22T01:52:44.931Z,10.76
2018-12-22T01:55:13.742Z,10.70
2018-12-22T01:57:42.140Z,10.77
2018-12-22T02:00:10.453Z,10.74
2018-12-22T02:02:38.802Z,10.79
2018-12-22T02:05:07.151Z,10.75
2018-12-22T02:07:35.537Z,10.75
2018-12-22T02:10:05.030Z,10.67
2018-12-22T02:12:33.365Z,10.67
2018-12-22T02:15:01.695Z,10.67
2018-12-22T02:17:30.026Z,10.76
2018-12-22T02:19:58.338Z,10.69
2018-12-22T02:22:26.696Z,10.75
2018-12-22T02:24:55.014Z,10.68
2018-12-22T02:27:23.338Z,10.58
2018-12-22T02:29:51.657Z,10.57
2018-12-22T02:32:20.050Z,10.58
2018-12-22T02:34:48.372Z,10.51
2018-12-22T02:37:16.718Z,10.52
2018-12-22T02:39:45.028Z,10.54
2018-12-22T02:42:13.943Z,10.50
2018-12-22T02:44:42.214Z,10.51
2018-12-22T02:47:10.532Z,10.58
2018-12-22T02:49:39.010Z,10.55
2018-12-22T02:52:07.366Z,10.55
2018-12-22T02:54:35.681Z,10.43
2018-12-22T02:57:04.045Z,10.42
2018-12-22T02:59:32.372Z,10.55
2018-12-22T03:02:00.777Z,10.58
2018-12-22T03:04:29.114Z,10.52
2018-12-22T03:06:57.454Z,10.47
2018-12-22T03:09:25.790Z,10.54
2018-12-22T03:11:54.123Z,10.67
2018-12-22T03:14:22.537Z,10.60
2018-12-22T03:16:51.623Z,10.61
2018-12-22T03:19:19.952Z,10.59
2018-12-22T03:21:48.295Z,10.59
2018-12-22T03:24:16.719Z,10.54
2018-12-22T03:26:45.123Z,10.52
2018-12-22T03:29:15.745Z,10.55
2018-12-22T03:31:44.333Z,10.50
2018-12-22T03:34:13.508Z,10.43
2018-12-22T03:36:41.822Z,10.35
2018-12-22T03:39:10.202Z,10.30
2018-12-22T03:41:38.608Z,10.26
2018-12-22T03:44:06.960Z,10.31
2018-12-22T03:46:35.369Z,10.32
2018-12-22T03:49:03.774Z,10.45
2018-12-22T03:51:32.074Z,10.43
2018-12-22T03:54:00.432Z,10.49
2018-12-22T03:56:28.760Z,10.53
2018-12-22T03:58:57.088Z,10.52
2018-12-22T04:01:25.495Z,10.53
2018-12-22T04:03:53.827Z,10.61
2018-12-22T04:06:22.254Z,10.55
2018-12-22T04:08:50.575Z,10.53
2018-12-22T04:11:18.933Z,10.64
2018-12-22T04:13:47.259Z,10.62
2018-12-22T04:16:15.659Z,10.70
2018-12-22T04:18:43.985Z,10.69
2018-12-22T04:21:12.505Z,10.69
2018-12-22T04:23:40.816Z,10.63
2018-12-22T04:26:09.180Z,10.68
2018-12-22T04:28:37.522Z,10.72
2018-12-22T04:31:05.849Z,10.76
2018-12-22T04:33:34.180Z,10.79
2018-12-22T04:36:02.510Z,10.79
2018-12-22T04:38:30.831Z,10.75
2018-12-22T04:40:59.165Z,10.75
2018-12-22T04:43:27.489Z,10.81
2018-12-22T04:45:55.829Z,10.88
2018-12-22T04:48:24.158Z,10.91
2018-12-22T04:50:52.723Z,10.87
2018-12-22T04:53:21.568Z,10.93
2018-12-22T04:55:49.947Z,10.87
2018-12-22T04:58:18.270Z,10.90
2018-12-22T05:00:46.647Z,11.00
2018-12-22T05:03:15.022Z,11.07
2018-12-22T05:05:43.365Z,10.99
2018-12-22T05:08:11.822Z,11.00
2018-12-22T05:10:40.129Z,10.96
2018-12-22T05:13:08.444Z,10.93
2018-12-22T05:15:36.785Z,10.95
2018-12-22T05:18:05.190Z,11.00
2018-12-22T05:20:33.516Z,11.03
2018-12-22T05:23:01.861Z,11.08
2018-12-22T05:25:30.185Z,11.04
2018-12-22T05:27:58.526Z,10.95
2018-12-22T05:30:26.906Z,10.92
2018-12-22T05:32:55.278Z,10.93
2018-12-22T05:35:23.603Z,11.03
2018-12-22T05:37:51.957Z,10.99
2018-12-22T05:40:20.306Z,10.97
2018-12-22T05:42:48.636Z,11.10
2018-12-22T05:45:17.220Z,11.01
2018-12-22T05:47:45.569Z,11.12
2018-12-22T05:50:13.914Z,11.09
2018-12-22T05:52:42.267Z,11.03
2018-12-22T05:55:10.606Z,11.09
2018-12-22T05:57:38.948Z,10.96
2018-12-22T06:00:09.312Z,11.05
2018-12-22T06:02:37.681Z,11.03
2018-12-22T06:05:08.394Z,11.06
2018-12-22T06:07:36.740Z,11.03
2018-12-22T06:10:06.890Z,11.11
2018-12-22T06:12:35.231Z,11.03
2018-12-22T06:15:04.201Z,11.06
2018-12-22T06:17:32.550Z,11.10
2018-12-22T06:20:00.962Z,11.12
2018-12-22T06:22:29.302Z,11.17
2018-12-22T06:24:57.635Z,11.24
2018-12-22T06:27:26.001Z,11.13
2018-12-22T06:29:54.311Z,11.01
2018-12-22T06:32:22.701Z,11.05
2018-12-22T06:34:51.025Z,11.03
2018-12-22T06:37:19.404Z,10.97
2018-12-22T06:39:47.720Z,10.95
2018-12-22T06:42:16.265Z,11.00
2018-12-22T06:44:44.681Z,10.99
2018-12-22T06:47:13.483Z,11.07
2018-12-22T06:49:41.791Z,11.07
2018-12-22T06:52:10.147Z,11.13
2018-12-22T06:54:38.445Z,11.17
2018-12-22T06:57:06.858Z,11.22
2018-12-22T06:59:35.200Z,11.18
2018-12-22T07:02:03.592Z,11.21
2018-12-22T07:04:31.920Z,11.23
2018-12-22T07:07:00.320Z,11.27
2018-12-22T07:09:28.634Z,11.28
2018-12-22T07:11:57.093Z,11.24
2018-12-22T07:14:25.469Z,11.30
2018-12-22T07:16:53.818Z,11.27
2018-12-22T07:19:22.222Z,11.24
2018-12-22T07:21:50.517Z,11.22
2018-12-22T07:24:18.851Z,11.27
2018-12-22T07:26:47.170Z,11.25
2018-12-22T07:29:15.509Z,11.25
2018-12-22T07:31:43.858Z,11.23
2018-12-22T07:34:12.175Z,11.21
2018-12-22T07:36:40.522Z,11.33
2018-12-22T07:39:09.207Z,11.32
2018-12-22T07:41:37.586Z,11.35
2018-12-22T07:44:06.002Z,11.36
2018-12-22T07:46:34.302Z,11.31
2018-12-22T07:49:02.643Z,11.38
2018-12-22T07:51:30.961Z,11.43
2018-12-22T07:53:59.331Z,11.40
2018-12-22T07:56:27.665Z,11.39
2018-12-22T07:58:56.208Z,11.37
2018-12-22T08:01:24.544Z,11.33
2018-12-22T08:03:52.869Z,11.35
2018-12-22T08:06:21.218Z,11.41
2018-12-22T08:08:49.631Z,11.40
2018-12-22T08:11:17.949Z,11.45
2018-12-22T08:13:46.304Z,11.40
2018-12-22T08:16:14.670Z,11.33
2018-12-22T08:18:43.306Z,11.36
2018-12-22T08:21:11.675Z,11.37
2018-12-22T08:23:40.002Z,11.47
2018-12-22T08:26:08.533Z,11.49
2018-12-22T08:28:36.850Z,11.52
2018-12-22T08:31:05.260Z,11.62
2018-12-22T08:33:33.652Z,11.54
2018-12-22T08:36:01.973Z,11.59
2018-12-22T08:38:30.316Z,11.65
2018-12-22T08:40:58.724Z,11.65
2018-12-22T08:43:28.098Z,11.67
2018-12-22T08:45:56.435Z,11.68
2018-12-22T08:48:24.956Z,11.75
2018-12-22T08:50:53.295Z,11.72
2018-12-22T08:53:21.617Z,11.77
2018-12-22T08:55:49.967Z,11.77
2018-12-22T08:58:18.279Z,11.78
2018-12-22T09:00:52.184Z,11.82
2018-12-22T09:03:16.941Z,11.83
2018-12-22T09:05:45.253Z,11.80
2018-12-22T09:08:13.589Z,11.81
2018-12-22T09:10:41.917Z,11.84
2018-12-22T09:13:10.331Z,11.82
2018-12-22T09:15:38.746Z,11.86
2018-12-22T09:18:07.855Z,11.92
2018-12-22T09:20:36.679Z,12.09
2018-12-22T09:23:05.373Z,12.10
2018-12-22T09:25:33.957Z,12.13
2018-12-22T09:28:02.298Z,12.21
2018-12-22T09:30:30.658Z,12.24
2018-12-22T09:32:58.989Z,12.15
2018-12-22T09:35:27.457Z,12.05
2018-12-22T09:37:55.760Z,11.97
2018-12-22T09:40:24.129Z,11.67
2018-12-22T09:42:52.459Z,11.47
2018-12-22T09:45:20.782Z,11.12
2018-12-22T09:47:49.123Z,10.94
2018-12-22T09:50:17.442Z,10.81
2018-12-22T09:52:47.137Z,10.79
2018-12-22T09:55:15.491Z,11.07
2018-12-22T09:57:43.857Z,10.69
2018-12-22T10:00:12.453Z,10.83
2018-12-22T10:02:40.805Z,10.64
2018-12-22T10:05:09.844Z,10.42
2018-12-22T10:07:38.177Z,10.40
2018-12-22T10:10:10.290Z,10.57
2018-12-22T10:12:38.648Z,10.54
2018-12-22T10:15:08.244Z,10.42
2018-12-22T10:17:36.568Z,10.43
2018-12-22T10:20:06.592Z,10.41
2018-12-22T10:22:34.941Z,10.52
2018-12-22T10:25:03.417Z,10.64
2018-12-22T10:27:31.786Z,10.64
2018-12-22T10:30:00.162Z,10.56
2018-12-22T10:32:28.559Z,10.59
2018-12-22T10:34:56.861Z,10.49
2018-12-22T10:37:25.234Z,10.58
2018-12-22T10:39:53.549Z,10.57
2018-12-22T10:42:21.917Z,10.53
2018-12-22T10:44:50.227Z,10.55
2018-12-22T10:47:18.579Z,10.69
2018-12-22T10:49:46.928Z,10.62
2018-12-22T10:52:15.255Z,10.91
2018-12-22T10:54:44.431Z,11.02
2018-12-22T10:57:12.743Z,11.04
2018-12-22T10:59:41.088Z,11.28
2018-12-22T11:02:11.099Z,11.52
2018-12-22T11:04:40.166Z,11.55
2018-12-22T11:07:09.286Z,11.47
2018-12-22T11:09:38.369Z,11.51
2018-12-22T11:12:07.369Z,11.61
2018-12-22T11:14:36.467Z,11.68
2018-12-22T11:17:05.568Z,11.92
2018-12-22T11:19:34.729Z,12.00
2018-12-22T11:22:03.038Z,12.13
2018-12-22T11:24:31.377Z,12.20
2018-12-22T11:26:59.704Z,12.23
2018-12-22T11:29:28.081Z,12.02
2018-12-22T11:31:56.457Z,12.12
2018-12-22T11:34:27.302Z,12.31
2018-12-22T11:36:55.638Z,12.39
2018-12-22T11:39:24.247Z,12.61
2018-12-22T11:41:52.574Z,12.84
2018-12-22T11:44:20.959Z,13.01
2018-12-22T11:46:49.333Z,12.98
2018-12-22T11:49:17.706Z,12.96
2018-12-22T11:51:46.052Z,12.89
2018-12-22T11:54:14.408Z,12.79
2018-12-22T11:56:42.749Z,12.93
2018-12-22T11:59:11.152Z,12.68
2018-12-22T12:01:43.527Z,12.92
2018-12-22T12:04:10.188Z,12.84
2018-12-22T12:06:38.577Z,12.70
2018-12-22T12:09:07.283Z,12.65
2018-12-22T12:11:35.594Z,12.61
2018-12-22T12:14:03.976Z,12.64
2018-12-22T12:16:32.388Z,12.63
2018-12-22T12:19:04.630Z,12.53
2018-12-22T12:21:33.095Z,12.42
2018-12-22T12:24:01.410Z,12.38
2018-12-22T12:26:29.789Z,12.34
2018-12-22T12:28:58.107Z,12.33
2018-12-22T12:31:26.536Z,12.53
2018-12-22T12:33:55.068Z,12.65
2018-12-22T12:36:23.426Z,12.81
2018-12-22T12:38:51.758Z,12.75
2018-12-22T12:41:20.374Z,12.67
2018-12-22T12:43:48.689Z,12.62
2018-12-22T12:46:17.016Z,12.54
2018-12-22T12:48:45.364Z,12.58
2018-12-22T12:51:13.709Z,12.42
2018-12-22T12:53:42.104Z,12.37
2018-12-22T12:56:10.644Z,12.29
2018-12-22T12:58:39.895Z,12.22
2018-12-22T13:01:08.492Z,12.26
2018-12-22T13:03:36.897Z,12.31
2018-12-22T13:06:05.225Z,12.29
2018-12-22T13:08:34.065Z,12.33
2018-12-22T13:11:02.449Z,12.42
2018-12-22T13:13:36.102Z,12.40
2018-12-22T13:16:04.462Z,12.43
2018-12-22T13:18:32.813Z,12.46
2018-12-22T13:21:03.215Z,12.43
2018-12-22T13:23:31.559Z,12.36
2018-12-22T13:25:59.898Z,12.39
2018-12-22T13:28:28.243Z,12.40
2018-12-22T13:30:56.596Z,12.24
2018-12-22T13:33:25.422Z,12.31
2018-12-22T13:35:53.870Z,12.30
2018-12-22T13:38:22.321Z,12.25
2018-12-22T13:40:50.653Z,12.28
2018-12-22T13:43:19.536Z,12.36
2018-12-22T13:45:47.883Z,12.37
2018-12-22T13:48:16.623Z,12.27
2018-12-22T13:50:45.060Z,12.37
2018-12-22T13:53:13.429Z,12.39
2018-12-22T13:55:41.770Z,12.41
2018-12-22T13:58:10.129Z,12.49
2018-12-22T14:00:38.726Z,12.45
2018-12-22T14:03:08.800Z,12.45
2018-12-22T14:05:37.128Z,12.42
2018-12-22T14:08:05.474Z,12.33
2018-12-22T14:10:33.815Z,12.33
2018-12-22T14:13:02.178Z,12.18
2018-12-22T14:15:30.546Z,12.20
2018-12-22T14:18:04.360Z,12.20
2018-12-22T14:20:33.955Z,12.22
2018-12-22T14:23:02.302Z,12.15
2018-12-22T14:25:30.708Z,12.16
2018-12-22T14:27:59.095Z,12.15
2018-12-22T14:30:27.496Z,12.07
2018-12-22T14:32:55.866Z,11.91
2018-12-22T14:35:28.049Z,11.87
2018-12-22T14:37:56.428Z,11.97
2018-12-22T14:40:24.868Z,11.99
2018-12-22T14:42:53.221Z,12.05
2018-12-22T14:45:21.609Z,11.94
2018-12-22T14:47:49.970Z,11.93
2018-12-22T14:50:18.315Z,11.85
2018-12-22T14:52:46.658Z,11.80
2018-12-22T14:55:14.997Z,11.77
2018-12-22T14:57:48.716Z,11.81
2018-12-22T15:00:17.107Z,11.76
2018-12-22T15:02:45.449Z,11.73
2018-12-22T15:05:14.159Z,11.75
2018-12-22T15:07:42.468Z,11.67
2018-12-22T15:10:11.907Z,11.68
2018-12-22T15:12:40.280Z,11.72
2018-12-22T15:15:10.955Z,11.72
2018-12-22T15:17:41.544Z,11.74
2018-12-22T15:20:17.158Z,11.67
2018-12-22T15:22:45.794Z,11.57
2018-12-22T15:25:14.137Z,11.59
2018-12-22T15:27:42.543Z,11.58
2018-12-22T15:30:13.720Z,11.64
2018-12-22T15:32:44.550Z,11.54
2018-12-22T15:35:12.549Z,11.53
2018-12-22T15:37:40.891Z,11.47
2018-12-22T15:40:10.944Z,11.30
2018-12-22T15:42:39.284Z,11.28
2018-12-22T15:45:13.025Z,11.29
2018-12-22T15:47:42.656Z,11.30
2018-12-22T15:50:15.653Z,11.16
2018-12-22T15:52:44.058Z,11.10
2018-12-22T15:55:12.576Z,11.03
2018-12-22T15:57:40.921Z,10.97
2018-12-22T16:00:11.471Z,10.75
2018-12-22T16:02:39.953Z,10.70
2018-12-22T16:05:11.317Z,10.62
2018-12-22T16:07:41.534Z,10.66
2018-12-22T16:10:13.621Z,10.63
2018-12-22T16:12:41.937Z,10.56
2018-12-22T16:15:15.147Z,10.48
2018-12-22T16:17:43.518Z,10.41
2018-12-22T16:20:13.602Z,10.31
2018-12-22T16:22:46.602Z,10.28
2018-12-22T16:25:16.610Z,10.26
2018-12-22T16:27:45.436Z,10.30
2018-12-22T16:30:15.929Z,10.24
2018-12-22T16:32:44.264Z,10.10
2018-12-22T16:35:14.026Z,10.10
2018-12-22T16:37:42.435Z,10.04
2018-12-22T16:40:12.064Z,10.01
2018-12-22T16:42:40.700Z,9.96
2018-12-22T16:45:13.268Z,9.88
2018-12-22T16:47:41.580Z,9.95
2018-12-22T16:50:13.767Z,9.93
2018-12-22T16:52:42.125Z,9.92
2018-12-22T16:55:13.144Z,9.81
2018-12-22T16:57:45.774Z,9.82
2018-12-22T17:00:19.758Z,9.81
2018-12-22T17:02:48.240Z,9.80
2018-12-22T17:05:17.100Z,9.74
2018-12-22T17:07:45.408Z,9.68
2018-12-22T17:10:14.367Z,9.68
2018-12-22T17:12:42.698Z,9.59
2018-12-22T17:15:21.581Z,9.61
2018-12-22T17:17:43.253Z,9.52
2018-12-22T17:20:14.883Z,9.50
2018-12-22T17:22:48.677Z,9.53
2018-12-22T17:25:18.461Z,9.54
2018-12-22T17:27:46.835Z,9.47
2018-12-22T17:30:15.643Z,9.51
2018-12-22T17:32:43.945Z,9.55
2018-12-22T17:35:14.069Z,9.46
2018-12-22T17:37:42.366Z,9.60
2018-12-22T17:40:10.714Z,9.49
2018-12-22T17:42:39.008Z,9.53
2018-12-22T17:45:10.284Z,9.59
2018-12-22T17:47:40.323Z,9.58
2018-12-22T17:50:09.631Z,9.52
2018-12-22T17:52:38.008Z,9.55
2018-12-22T17:55:09.173Z,9.58
2018-12-22T17:57:37.503Z,9.51
2018-12-22T18:00:10.536Z,9.45
2018-12-22T18:02:39.126Z,9.46
2018-12-22T18:05:07.712Z,9.40
2018-12-22T18:07:36.013Z,9.35
2018-12-22T18:10:08.190Z,9.36
2018-12-22T18:12:36.549Z,9.37
2018-12-22T18:15:11.443Z,9.43
2018-12-22T18:17:39.782Z,9.39
2018-12-22T18:20:09.547Z,9.35
2018-12-22T18:22:37.910Z,9.37
2018-12-22T18:25:10.307Z,9.33
2018-12-22T18:27:38.738Z,9.31
2018-12-22T18:30:11.023Z,9.48
2018-12-22T18:32:40.292Z,9.47
2018-12-22T18:35:10.042Z,9.49
2018-12-22T18:37:39.087Z,9.58
2018-12-22T18:40:11.717Z,9.54
2018-12-22T18:42:40.215Z,9.61
2018-12-22T18:45:10.673Z,9.49
2018-12-22T18:47:39.108Z,9.54
2018-12-22T18:50:13.128Z,9.53
2018-12-22T18:52:41.606Z,9.45
2018-12-22T18:55:10.173Z,9.54
2018-12-22T18:57:38.525Z,9.52
2018-12-22T19:00:12.161Z,9.59
2018-12-22T19:02:40.509Z,9.63
2018-12-22T19:05:09.189Z,9.71
2018-12-22T19:07:37.524Z,9.63
2018-12-22T19:10:12.569Z,9.55
2018-12-22T19:12:40.885Z,9.62
2018-12-22T19:15:09.301Z,9.58
2018-12-22T19:17:37.691Z,9.51
2018-12-22T19:20:10.797Z,9.51
2018-12-22T19:22:39.150Z,9.53
2018-12-22T19:25:08.084Z,9.54
2018-12-22T19:27:36.436Z,9.66
2018-12-22T19:30:06.596Z,9.65
2018-12-22T19:32:34.939Z,9.61
2018-12-22T19:35:03.377Z,9.74
2018-12-22T19:37:31.732Z,9.67
2018-12-22T19:40:00.276Z,9.61
2018-12-22T19:42:29.004Z,9.65
2018-12-22T19:44:57.342Z,9.65
2018-12-22T19:47:25.765Z,9.58
2018-12-22T19:49:54.086Z,9.59
2018-12-22T19:52:22.416Z,9.49
2018-12-22T19:54:50.744Z,9.51
2018-12-22T19:57:19.094Z,9.49
2018-12-22T19:59:47.521Z,9.45
2018-12-22T20:02:16.029Z,9.47
2018-12-22T20:04:44.396Z,9.46
2018-12-22T20:07:13.215Z,9.37
2018-12-22T20:09:41.584Z,9.30
2018-12-22T20:12:09.942Z,9.29
2018-12-22T20:14:38.333Z,9.38
2018-12-22T20:17:06.712Z,9.38
2018-12-22T20:19:35.049Z,9.39
2018-12-22T20:22:03.370Z,9.40
2018-12-22T20:24:31.717Z,9.40
2018-12-22T20:27:00.045Z,9.46
2018-12-22T20:29:28.389Z,9.34
2018-12-22T20:31:56.716Z,9.36
2018-12-22T20:34:25.062Z,9.33
2018-12-22T20:36:53.358Z,9.31
2018-12-22T20:39:21.730Z,9.33
2018-12-22T20:41:50.060Z,9.37
2018-12-22T20:44:18.372Z,9.37
2018-12-22T20:46:46.703Z,9.44
2018-12-22T20:49:15.308Z,9.53
2018-12-22T20:51:43.626Z,9.62
2018-12-22T20:54:12.583Z,9.70
2018-12-22T20:56:40.926Z,9.66
2018-12-22T20:59:09.274Z,9.70
2018-12-22T21:01:37.608Z,9.80
2018-12-22T21:04:05.939Z,9.75
2018-12-22T21:06:34.341Z,9.82
2018-12-22T21:09:04.536Z,9.91
2018-12-22T21:11:32.945Z,9.88
2018-12-22T21:14:01.362Z,9.78
2018-12-22T21:16:29.722Z,9.76
2018-12-22T21:18:58.051Z,9.80
2018-12-22T21:21:26.428Z,9.88
2018-12-22T21:23:54.765Z,9.82
2018-12-22T21:26:23.129Z,9.76
2018-12-22T21:28:51.522Z,9.79
2018-12-22T21:31:19.957Z,9.77
2018-12-22T21:33:48.286Z,9.76
2018-12-22T21:36:16.636Z,9.82
2018-12-22T21:38:44.989Z,9.73
2018-12-22T21:41:13.959Z,9.80
2018-12-22T21:43:42.261Z,9.78
2018-12-22T21:46:10.778Z,9.91
2018-12-22T21:48:39.083Z,9.84
2018-12-22T21:51:07.568Z,9.85
2018-12-22T21:53:35.872Z,9.75
2018-12-22T21:56:04.282Z,9.75
2018-12-22T21:58:32.625Z,9.72
2018-12-22T22:01:01.004Z,9.75
2018-12-22T22:03:29.359Z,9.69
2018-12-22T22:05:57.749Z,9.63
2018-12-22T22:08:26.121Z,9.64
2018-12-22T22:10:54.460Z,9.61
2018-12-22T22:13:22.830Z,9.66
2018-12-22T22:15:51.189Z,9.71
2018-12-22T22:18:19.525Z,9.77
2018-12-22T22:20:47.853Z,9.81
2018-12-22T22:23:19.152Z,9.82
2018-12-22T22:25:46.530Z,9.85
2018-12-22T22:28:15.042Z,9.85
2018-12-22T22:30:43.438Z,9.79
2018-12-22T22:33:11.857Z,9.70
2018-12-22T22:35:40.166Z,9.61
2018-12-22T22:38:08.979Z,9.60
2018-12-22T22:40:37.416Z,9.55
2018-12-22T22:43:06.691Z,9.60
2018-12-22T22:45:35.008Z,9.47
2018-12-22T22:48:03.344Z,9.35
2018-12-22T22:50:31.718Z,9.29
2018-12-22T22:53:00.056Z,9.26
2018-12-22T22:55:28.945Z,9.26
2018-12-22T22:57:57.293Z,9.21
2018-12-22T23:00:28.456Z,9.20
2018-12-22T23:02:56.781Z,9.22
2018-12-22T23:05:25.115Z,9.12
2018-12-22T23:07:53.499Z,9.23
2018-12-22T23:10:21.954Z,9.10
2018-12-22T23:12:50.294Z,9.33
2018-12-22T23:15:18.823Z,9.49
2018-12-22T23:17:47.132Z,9.56
2018-12-22T23:20:16.288Z,9.80
2018-12-22T23:22:44.614Z,9.58
2018-12-22T23:25:13.336Z,9.53
2018-12-22T23:27:41.680Z,9.52
2018-12-22T23:30:10.174Z,9.39
2018-12-22T23:32:38.479Z,9.42
2018-12-22T23:35:06.998Z,9.36
2018-12-22T23:37:35.364Z,9.35
2018-12-22T23:40:03.913Z,9.45
2018-12-22T23:42:32.242Z,9.52
2018-12-22T23:45:00.583Z,9.40
2018-12-22T23:47:28.897Z,9.41
2018-12-22T23:49:57.260Z,9.42
2018-12-22T23:52:25.591Z,9.45
2018-12-22T23:54:53.921Z,9.38
2018-12-22T23:57:22.245Z,9.39
2018-12-22T23:59:50.575Z,9.19
